FW2389 Orient NY US current weather conditions

sailwx.info

Wind from 272 at 11 knots gusting 18

Last reported at 2020-Jul-12 12:00 UTC.
Time now 2020-Jul-12 13:07 UTC

Location: N 41°09' W 072°15'.
View on Google Maps.

See reports from other nearby stations

  
Tides and Currents Weather Stations Pressure Air Temp Water Temp Dewpoint Dewpoint Depression Visibility Wind Speed Wind Dir Waves Ship Positions
date/time (UTC)wind fromknots sea level pressurealtimeterstation pressurevisibilityair tempwater tempwave heightnotes
2020-Jul-12 12:00 272 11 gusting 18
2020-Jul-12 11:46 290 13 gusting 18
2020-Jul-12 11:31 268 12 gusting 18
2020-Jul-12 11:17 286 12 gusting 17
2020-Jul-12 11:01 271 10 gusting 18
2020-Jul-12 10:46 273 13 gusting 15
2020-Jul-12 10:30
2020-Jul-12 10:16 269 8 gusting 13
2020-Jul-12 10:01 265 7 gusting 13
2020-Jul-12 09:46 275 9 gusting 13
2020-Jul-12 09:31 276 7 gusting 13
2020-Jul-12 09:15 262 7 gusting 12
2020-Jul-12 09:00 280 7 gusting 13
2020-Jul-12 08:45 289 8 gusting 12
2020-Jul-12 08:30 279 8 gusting 12
2020-Jul-12 08:15 274 6 gusting 8
2020-Jul-12 08:00 294 6 gusting 10
2020-Jul-12 07:45 246 5 gusting 7
2020-Jul-12 07:30 271 6 gusting 8
2020-Jul-12 07:15 251 6 gusting 9
2020-Jul-12 07:00 250 5 gusting 8
2020-Jul-12 06:45 248 6 gusting 9
2020-Jul-12 06:30 262 8 gusting 12
2020-Jul-12 06:16 257 6 gusting 11
2020-Jul-12 06:01 258 7 gusting 13
2020-Jul-12 05:47 262 8 gusting 13
2020-Jul-12 05:30 238 11 gusting 13
2020-Jul-12 05:16 234 10 gusting 13
2020-Jul-12 05:01 240 7 gusting 13
2020-Jul-12 04:46 239 9 gusting 16
2020-Jul-12 04:30 250 10 gusting 14
2020-Jul-12 04:15 239 11 gusting 13
2020-Jul-12 04:01 243 9 gusting 13
2020-Jul-12 03:45 257 9 gusting 14
2020-Jul-12 03:30 258 12 gusting 18
2020-Jul-12 03:15 251 11 gusting 17
2020-Jul-12 03:00 219 11 gusting 18
2020-Jul-12 02:45 230 15 gusting 19
2020-Jul-12 02:30 253 16 gusting 21
2020-Jul-12 02:15 252 13 gusting 20
2020-Jul-12 02:02 226 13 gusting 21
2020-Jul-12 01:46 231 13 gusting 19
2020-Jul-12 01:31 236 16 gusting 22
2020-Jul-12 01:17 226 15 gusting 20
2020-Jul-12 01:01 221 14 gusting 18
2020-Jul-12 00:46 215 13 gusting 19
2020-Jul-12 00:31 218 13 gusting 15
2020-Jul-12 00:15 232 8 gusting 16
2020-Jul-12 00:00 203 10 gusting 14
2020-Jul-11 23:45 234 9 gusting 13
2020-Jul-11 23:30 236 10 gusting 14
2020-Jul-11 23:15 230 9 gusting 12
2020-Jul-11 23:00 233 9 gusting 13
2020-Jul-11 22:45 232 9 gusting 15
2020-Jul-11 22:30 224 14 gusting 19
2020-Jul-11 22:15 211 13 gusting 18
2020-Jul-11 22:02 235 11 gusting 15
2020-Jul-11 21:45 223 12 gusting 15
2020-Jul-11 21:31 208 12 gusting 14
2020-Jul-11 21:17 207 11 gusting 14
2020-Jul-11 21:01 207 14 gusting 17
2020-Jul-11 20:45 192 11 gusting 13
2020-Jul-11 20:30 212 12 gusting 14
2020-Jul-11 20:16 212 9 gusting 13
2020-Jul-11 20:00 192 12 gusting 14
2020-Jul-11 19:45 214 11 gusting 14
2020-Jul-11 19:30 195 10 gusting 14
2020-Jul-11 19:15 207 10 gusting 13
2020-Jul-11 19:00 206 11 gusting 16
2020-Jul-11 18:45 205 9 gusting 13
2020-Jul-11 18:30 196 9 gusting 13
2020-Jul-11 18:15 192 9 gusting 13
2020-Jul-11 18:00 197 8 gusting 13
2020-Jul-11 17:45 261 11 gusting 14
2020-Jul-11 17:31 217 10 gusting 13
2020-Jul-11 17:16 207 12 gusting 14
2020-Jul-11 17:00 198 9 gusting 12
2020-Jul-11 16:46 212 9 gusting 12
2020-Jul-11 16:30 218 8 gusting 13
2020-Jul-11 16:16 219 10 gusting 13
2020-Jul-11 16:01 213 11 gusting 15
2020-Jul-11 15:45 210 12 gusting 15
2020-Jul-11 15:30 212 13 gusting 15
2020-Jul-11 15:15 212 10 gusting 13
2020-Jul-11 15:00 229 10 gusting 13
2020-Jul-11 14:46 200 8 gusting 13
2020-Jul-11 14:30 188 7 gusting 12
2020-Jul-11 14:15 189 6 gusting 9
2020-Jul-11 14:00 192 3 gusting 9
2020-Jul-11 13:45 207 6 gusting 12
2020-Jul-11 13:30 243 8 gusting 11
2020-Jul-11 13:15 231 10 gusting 13
2020-Jul-11 13:01 232 6 gusting 11
2020-Jul-11 12:46 231 8 gusting 12
2020-Jul-11 12:31 179 6 gusting 13
2020-Jul-11 12:16 225 9 gusting 13
2020-Jul-11 12:01 210 10 gusting 13
2020-Jul-11 11:46 245 12 gusting 17
2020-Jul-11 11:31 233 13 gusting 19
2020-Jul-11 11:16 244 13 gusting 18
2020-Jul-11 11:01 225 12 gusting 19
2020-Jul-11 10:46 226 13 gusting 19
2020-Jul-11 10:31 220 14 gusting 19
2020-Jul-11 10:16 223 13 gusting 18
2020-Jul-11 10:01 230 14 gusting 17
2020-Jul-11 09:45 211 14 gusting 19
2020-Jul-11 09:30 225 13 gusting 18
2020-Jul-11 09:15 222 13 gusting 21
2020-Jul-11 09:00 232 15 gusting 20
2020-Jul-11 08:45 224 16 gusting 21
2020-Jul-11 08:33 226 18 gusting 23
2020-Jul-11 08:15 223 18 gusting 24
2020-Jul-11 08:00 220 17 gusting 23
2020-Jul-11 07:45 195 17 gusting 23
2020-Jul-11 07:30 209 19 gusting 26
2020-Jul-11 07:15 214 20 gusting 28
2020-Jul-11 07:00 210 23 gusting 29
2020-Jul-11 06:45 203 21 gusting 28
2020-Jul-11 06:31 198 19 gusting 25
2020-Jul-11 06:16 205 20 gusting 26
2020-Jul-11 06:01 206 19 gusting 26
2020-Jul-11 05:46 207 21 gusting 28
2020-Jul-11 05:32 210 20 gusting 26
2020-Jul-11 05:16 195 19 gusting 25
2020-Jul-11 05:00 185 14 gusting 25
2020-Jul-11 04:46 179 13 gusting 21
2020-Jul-11 04:30 192 16 gusting 25
2020-Jul-11 04:15 220 14 gusting 20
2020-Jul-11 04:00 165 16 gusting 20
2020-Jul-11 03:45 147 15 gusting 19
2020-Jul-11 03:30 158 15 gusting 19
2020-Jul-11 03:15 147 14 gusting 19
2020-Jul-11 03:00 146 14 gusting 19
2020-Jul-11 02:47 141 15 gusting 22
2020-Jul-11 02:31 129 17 gusting 20
2020-Jul-11 02:16 150 16 gusting 19
2020-Jul-11 02:01 153 16 gusting 20
2020-Jul-11 01:46 143 16 gusting 19
2020-Jul-11 01:32 134 16 gusting 20
2020-Jul-11 01:17 146 17 gusting 21
2020-Jul-11 01:01 150 17 gusting 23
2020-Jul-11 00:46 103 20 gusting 24
2020-Jul-11 00:31 107 18 gusting 23
2020-Jul-11 00:16 113 20 gusting 25
2020-Jul-11 00:01 122 19 gusting 25
2020-Jul-10 23:45 117 21 gusting 25
2020-Jul-10 23:30 110 22 gusting 26
2020-Jul-10 23:15 107 20 gusting 24
2020-Jul-10 23:00 103 21 gusting 25
2020-Jul-10 22:45 096 19 gusting 24
2020-Jul-10 22:30 101 20 gusting 26
2020-Jul-10 22:15 093 19 gusting 25
2020-Jul-10 22:00 089 18 gusting 21
2020-Jul-10 21:45 098 17 gusting 21
2020-Jul-10 21:32 100 18 gusting 24
2020-Jul-10 21:17 080 17 gusting 22
2020-Jul-10 21:01 099 18 gusting 21
2020-Jul-10 20:45 094 13 gusting 18
2020-Jul-10 20:31 091 14 gusting 19
2020-Jul-10 20:16 102 15 gusting 19
2020-Jul-10 20:00 092 15 gusting 19
2020-Jul-10 19:46 082 14 gusting 17
2020-Jul-10 19:30 101 13 gusting 17
2020-Jul-10 19:15 101 15 gusting 18
2020-Jul-10 19:00 116 15 gusting 19
2020-Jul-10 18:45 099 15 gusting 19
2020-Jul-10 18:30 095 14 gusting 17
2020-Jul-10 18:17 103 14 gusting 17
2020-Jul-10 18:01 095 11 gusting 14
2020-Jul-10 17:46 084 10 gusting 13
2020-Jul-10 17:31 094 10 gusting 12
2020-Jul-10 17:18 102 11 gusting 14
2020-Jul-10 17:01 113 13 gusting 15
2020-Jul-10 16:46 089 13 gusting 15
2020-Jul-10 16:31 120 13 gusting 16
2020-Jul-10 16:16 103 13 gusting 16
2020-Jul-10 16:01 089 12 gusting 15
2020-Jul-10 15:46 092 12 gusting 14
2020-Jul-10 15:31 098 10 gusting 13
2020-Jul-10 15:15 099 9 gusting 13
2020-Jul-10 15:00 090 11 gusting 13
2020-Jul-10 14:45 100 12 gusting 14
2020-Jul-10 14:30 103 12 gusting 15
2020-Jul-10 14:15 097 13 gusting 15
2020-Jul-10 14:00 091 12 gusting 14
2020-Jul-10 13:31 087 11 gusting 14
2020-Jul-10 13:16 095 11 gusting 14
2020-Jul-10 13:01 079 12 gusting 15